sensor_id;sensor_type;location;lat;lon;timestamp;temperature;humidity
14182;DHT22;7171;50.936;6.764;2023-04-16T00:02:13;9.30;99.90
14182;DHT22;7171;50.936;6.764;2023-04-16T00:04:40;9.30;99.90
14182;DHT22;7171;50.936;6.764;2023-04-16T00:07:06;9.30;99.90
14182;DHT22;7171;50.936;6.764;2023-04-16T00:09:34;9.30;99.90
14182;DHT22;7171;50.936;6.764;2023-04-16T00:12:02;9.30;99.90
14182;DHT22;7171;50.936;6.764;2023-04-16T00:14:29;9.30;99.90
14182;DHT22;7171;50.936;6.764;2023-04-16T00:16:56;9.30;99.90
14182;DHT22;7171;50.936;6.764;2023-04-16T00:19:22;9.30;99.90
14182;DHT22;7171;50.936;6.764;2023-04-16T00:21:49;9.30;99.90
14182;DHT22;7171;50.936;6.764;2023-04-16T00:24:16;9.40;99.90
14182;DHT22;7171;50.936;6.764;2023-04-16T00:26:44;9.30;99.90
14182;DHT22;7171;50.936;6.764;2023-04-16T00:29:11;9.30;99.90
14182;DHT22;7171;50.936;6.764;2023-04-16T00:31:37;9.30;99.90
14182;DHT22;7171;50.936;6.764;2023-04-16T00:34:04;9.30;99.90
14182;DHT22;7171;50.936;6.764;2023-04-16T00:36:31;9.30;99.90
14182;DHT22;7171;50.936;6.764;2023-04-16T00:38:58;9.30;99.90
14182;DHT22;7171;50.936;6.764;2023-04-16T00:41:24;9.30;99.90
14182;DHT22;7171;50.936;6.764;2023-04-16T00:43:53;9.30;99.90
14182;DHT22;7171;50.936;6.764;2023-04-16T00:46:21;9.30;99.90
14182;DHT22;7171;50.936;6.764;2023-04-16T00:48:49;9.30;99.90
14182;DHT22;7171;50.936;6.764;2023-04-16T00:51:18;9.30;99.90
14182;DHT22;7171;50.936;6.764;2023-04-16T00:53:46;9.30;99.90
14182;DHT22;7171;50.936;6.764;2023-04-16T00:56:13;9.30;99.90
14182;DHT22;7171;50.936;6.764;2023-04-16T00:58:40;9.30;99.90
14182;DHT22;7171;50.936;6.764;2023-04-16T01:01:08;9.40;99.90
14182;DHT22;7171;50.936;6.764;2023-04-16T01:03:38;9.40;99.90
14182;DHT22;7171;50.936;6.764;2023-04-16T01:06:05;9.40;99.90
14182;DHT22;7171;50.936;6.764;2023-04-16T01:08:32;9.40;99.90
14182;DHT22;7171;50.936;6.764;2023-04-16T01:10:59;9.40;99.90
14182;DHT22;7171;50.936;6.764;2023-04-16T01:13:25;9.40;99.90
14182;DHT22;7171;50.936;6.764;2023-04-16T01:15:52;9.40;99.90
14182;DHT22;7171;50.936;6.764;2023-04-16T01:18:21;9.40;99.90
14182;DHT22;7171;50.936;6.764;2023-04-16T01:20:49;9.40;99.90
14182;DHT22;7171;50.936;6.764;2023-04-16T01:23:17;9.40;99.90
14182;DHT22;7171;50.936;6.764;2023-04-16T01:25:44;9.40;99.90
14182;DHT22;7171;50.936;6.764;2023-04-16T01:28:11;9.40;99.90
14182;DHT22;7171;50.936;6.764;2023-04-16T01:30:37;9.40;99.90
14182;DHT22;7171;50.936;6.764;2023-04-16T01:33:04;9.40;99.90
14182;DHT22;7171;50.936;6.764;2023-04-16T01:35:32;9.40;99.90
14182;DHT22;7171;50.936;6.764;2023-04-16T01:38:00;9.40;99.90
14182;DHT22;7171;50.936;6.764;2023-04-16T01:40:27;9.40;99.90
14182;DHT22;7171;50.936;6.764;2023-04-16T01:42:54;9.40;99.90
14182;DHT22;7171;50.936;6.764;2023-04-16T01:45:21;9.40;99.90
14182;DHT22;7171;50.936;6.764;2023-04-16T01:47:48;9.40;99.90
14182;DHT22;7171;50.936;6.764;2023-04-16T01:50:15;9.40;99.90
14182;DHT22;7171;50.936;6.764;2023-04-16T01:52:42;9.40;99.90
14182;DHT22;7171;50.936;6.764;2023-04-16T01:55:11;9.40;99.90
14182;DHT22;7171;50.936;6.764;2023-04-16T01:57:37;9.40;99.90
14182;DHT22;7171;50.936;6.764;2023-04-16T02:00:05;9.40;99.90
14182;DHT22;7171;50.936;6.764;2023-04-16T02:02:33;9.40;99.90
14182;DHT22;7171;50.936;6.764;2023-04-16T02:05:00;9.40;99.90
14182;DHT22;7171;50.936;6.764;2023-04-16T02:07:27;9.40;99.90
14182;DHT22;7171;50.936;6.764;2023-04-16T02:09:56;9.40;99.90
14182;DHT22;7171;50.936;6.764;2023-04-16T02:12:24;9.40;99.90
14182;DHT22;7171;50.936;6.764;2023-04-16T02:14:51;9.40;99.90
14182;DHT22;7171;50.936;6.764;2023-04-16T02:17:18;9.40;99.90
14182;DHT22;7171;50.936;6.764;2023-04-16T02:19:44;9.40;99.90
14182;DHT22;7171;50.936;6.764;2023-04-16T02:22:11;9.40;99.90
14182;DHT22;7171;50.936;6.764;2023-04-16T02:24:38;9.40;99.90
14182;DHT22;7171;50.936;6.764;2023-04-16T02:27:05;9.40;99.90
14182;DHT22;7171;50.936;6.764;2023-04-16T02:29:33;9.30;99.90
14182;DHT22;7171;50.936;6.764;2023-04-16T02:32:00;9.30;99.90
14182;DHT22;7171;50.936;6.764;2023-04-16T02:34:27;9.30;99.90
14182;DHT22;7171;50.936;6.764;2023-04-16T02:36:54;9.40;99.90
14182;DHT22;7171;50.936;6.764;2023-04-16T02:39:22;9.30;99.90
14182;DHT22;7171;50.936;6.764;2023-04-16T02:41:49;9.30;99.90
14182;DHT22;7171;50.936;6.764;2023-04-16T02:44:16;9.40;99.90
14182;DHT22;7171;50.936;6.764;2023-04-16T02:46:44;9.30;99.90
14182;DHT22;7171;50.936;6.764;2023-04-16T02:49:11;9.30;99.90
14182;DHT22;7171;50.936;6.764;2023-04-16T02:51:38;9.30;99.90
14182;DHT22;7171;50.936;6.764;2023-04-16T02:54:04;9.30;99.90
14182;DHT22;7171;50.936;6.764;2023-04-16T02:56:31;9.40;99.90
14182;DHT22;7171;50.936;6.764;2023-04-16T02:58:58;9.30;99.90
14182;DHT22;7171;50.936;6.764;2023-04-16T03:01:25;9.30;99.90
14182;DHT22;7171;50.936;6.764;2023-04-16T03:03:54;9.40;99.90
14182;DHT22;7171;50.936;6.764;2023-04-16T03:06:21;9.40;99.90
14182;DHT22;7171;50.936;6.764;2023-04-16T03:08:47;9.40;99.90
14182;DHT22;7171;50.936;6.764;2023-04-16T03:11:14;9.40;99.90
14182;DHT22;7171;50.936;6.764;2023-04-16T03:13:41;9.30;99.90
14182;DHT22;7171;50.936;6.764;2023-04-16T03:16:07;9.30;99.90
14182;DHT22;7171;50.936;6.764;2023-04-16T03:18:35;9.30;99.90
14182;DHT22;7171;50.936;6.764;2023-04-16T03:21:03;9.30;99.90
14182;DHT22;7171;50.936;6.764;2023-04-16T03:23:30;9.30;99.90
14182;DHT22;7171;50.936;6.764;2023-04-16T03:25:57;9.30;99.90
14182;DHT22;7171;50.936;6.764;2023-04-16T03:28:23;9.30;99.90
14182;DHT22;7171;50.936;6.764;2023-04-16T03:30:51;9.30;99.90
14182;DHT22;7171;50.936;6.764;2023-04-16T03:33:18;9.30;99.90
14182;DHT22;7171;50.936;6.764;2023-04-16T03:35:45;9.30;99.90
14182;DHT22;7171;50.936;6.764;2023-04-16T03:38:13;9.30;99.90
14182;DHT22;7171;50.936;6.764;2023-04-16T03:40:39;9.30;99.90
14182;DHT22;7171;50.936;6.764;2023-04-16T03:43:06;9.30;99.90
14182;DHT22;7171;50.936;6.764;2023-04-16T03:45:33;9.30;99.90
14182;DHT22;7171;50.936;6.764;2023-04-16T03:48:00;9.30;99.90
14182;DHT22;7171;50.936;6.764;2023-04-16T03:50:26;9.30;99.90
14182;DHT22;7171;50.936;6.764;2023-04-16T03:52:53;9.30;99.90
14182;DHT22;7171;50.936;6.764;2023-04-16T03:55:21;9.30;99.90
14182;DHT22;7171;50.936;6.764;2023-04-16T03:57:48;9.30;99.90
14182;DHT22;7171;50.936;6.764;2023-04-16T04:00:15;9.30;99.90
14182;DHT22;7171;50.936;6.764;2023-04-16T04:02:41;9.30;99.90
14182;DHT22;7171;50.936;6.764;2023-04-16T04:05:08;9.30;99.90
14182;DHT22;7171;50.936;6.764;2023-04-16T04:07:35;9.30;99.90
14182;DHT22;7171;50.936;6.764;2023-04-16T04:10:01;9.30;99.90
14182;DHT22;7171;50.936;6.764;2023-04-16T04:12:30;9.30;99.90
14182;DHT22;7171;50.936;6.764;2023-04-16T04:14:57;9.30;99.90
14182;DHT22;7171;50.936;6.764;2023-04-16T04:17:24;9.30;99.90
14182;DHT22;7171;50.936;6.764;2023-04-16T04:19:51;9.30;99.90
14182;DHT22;7171;50.936;6.764;2023-04-16T04:22:18;9.20;99.90
14182;DHT22;7171;50.936;6.764;2023-04-16T04:24:45;9.20;99.90
14182;DHT22;7171;50.936;6.764;2023-04-16T04:27:11;9.30;99.90
14182;DHT22;7171;50.936;6.764;2023-04-16T04:29:39;9.30;99.90
14182;DHT22;7171;50.936;6.764;2023-04-16T04:32:06;9.20;99.90
14182;DHT22;7171;50.936;6.764;2023-04-16T04:34:33;9.20;99.90
14182;DHT22;7171;50.936;6.764;2023-04-16T04:37:00;9.20;99.90
14182;DHT22;7171;50.936;6.764;2023-04-16T04:39:26;9.20;99.90
14182;DHT22;7171;50.936;6.764;2023-04-16T04:41:53;9.30;99.90
14182;DHT22;7171;50.936;6.764;2023-04-16T04:44:20;9.30;99.90
14182;DHT22;7171;50.936;6.764;2023-04-16T04:46:48;9.30;99.90
14182;DHT22;7171;50.936;6.764;2023-04-16T04:49:14;9.30;99.90
14182;DHT22;7171;50.936;6.764;2023-04-16T04:51:41;9.30;99.90
14182;DHT22;7171;50.936;6.764;2023-04-16T04:54:08;9.30;99.90
14182;DHT22;7171;50.936;6.764;2023-04-16T04:56:35;9.30;99.90
14182;DHT22;7171;50.936;6.764;2023-04-16T04:59:01;9.40;99.90
14182;DHT22;7171;50.936;6.764;2023-04-16T05:01:28;9.40;99.90
14182;DHT22;7171;50.936;6.764;2023-04-16T05:03:56;9.30;99.90
14182;DHT22;7171;50.936;6.764;2023-04-16T05:06:23;9.30;99.90
14182;DHT22;7171;50.936;6.764;2023-04-16T05:08:50;9.30;99.90
14182;DHT22;7171;50.936;6.764;2023-04-16T05:11:16;9.40;99.90
14182;DHT22;7171;50.936;6.764;2023-04-16T05:13:43;9.40;99.90
14182;DHT22;7171;50.936;6.764;2023-04-16T05:16:10;9.40;99.90
14182;DHT22;7171;50.936;6.764;2023-04-16T05:18:36;9.40;99.90
14182;DHT22;7171;50.936;6.764;2023-04-16T05:21:05;9.40;99.90
14182;DHT22;7171;50.936;6.764;2023-04-16T05:23:31;9.40;99.90
14182;DHT22;7171;50.936;6.764;2023-04-16T05:25:58;9.40;99.90
14182;DHT22;7171;50.936;6.764;2023-04-16T05:28:25;9.40;99.90
14182;DHT22;7171;50.936;6.764;2023-04-16T05:30:52;9.30;99.90
14182;DHT22;7171;50.936;6.764;2023-04-16T05:33:18;9.40;99.90
14182;DHT22;7171;50.936;6.764;2023-04-16T05:35:45;9.40;99.90
14182;DHT22;7171;50.936;6.764;2023-04-16T05:38:13;9.40;99.90
14182;DHT22;7171;50.936;6.764;2023-04-16T05:40:40;9.40;99.90
14182;DHT22;7171;50.936;6.764;2023-04-16T05:43:06;9.50;99.90
14182;DHT22;7171;50.936;6.764;2023-04-16T05:45:33;9.50;99.90
14182;DHT22;7171;50.936;6.764;2023-04-16T05:48:04;9.50;99.90
14182;DHT22;7171;50.936;6.764;2023-04-16T05:50:31;9.50;99.90
14182;DHT22;7171;50.936;6.764;2023-04-16T05:52:57;9.50;99.90
14182;DHT22;7171;50.936;6.764;2023-04-16T05:55:26;9.50;99.90
14182;DHT22;7171;50.936;6.764;2023-04-16T05:57:52;9.50;99.90
14182;DHT22;7171;50.936;6.764;2023-04-16T06:00:19;9.60;99.90
14182;DHT22;7171;50.936;6.764;2023-04-16T06:02:46;9.50;99.90
14182;DHT22;7171;50.936;6.764;2023-04-16T06:05:13;9.50;99.90
14182;DHT22;7171;50.936;6.764;2023-04-16T06:07:40;9.50;99.90
14182;DHT22;7171;50.936;6.764;2023-04-16T06:10:07;9.50;99.90
14182;DHT22;7171;50.936;6.764;2023-04-16T06:12:35;9.50;99.90
14182;DHT22;7171;50.936;6.764;2023-04-16T06:15:02;9.50;99.90
14182;DHT22;7171;50.936;6.764;2023-04-16T06:17:29;9.50;99.90
14182;DHT22;7171;50.936;6.764;2023-04-16T06:19:56;9.60;99.90
14182;DHT22;7171;50.936;6.764;2023-04-16T06:22:23;9.60;99.90
14182;DHT22;7171;50.936;6.764;2023-04-16T06:24:50;9.60;99.90
14182;DHT22;7171;50.936;6.764;2023-04-16T06:27:16;9.50;99.90
14182;DHT22;7171;50.936;6.764;2023-04-16T06:29:44;9.50;99.90
14182;DHT22;7171;50.936;6.764;2023-04-16T06:32:11;9.60;99.90
14182;DHT22;7171;50.936;6.764;2023-04-16T06:34:38;9.60;99.90
14182;DHT22;7171;50.936;6.764;2023-04-16T06:37:05;9.50;99.90
14182;DHT22;7171;50.936;6.764;2023-04-16T06:39:32;9.50;99.90
14182;DHT22;7171;50.936;6.764;2023-04-16T06:41:58;9.50;99.90
14182;DHT22;7171;50.936;6.764;2023-04-16T06:44:25;9.50;99.90
14182;DHT22;7171;50.936;6.764;2023-04-16T06:46:53;9.50;99.90
14182;DHT22;7171;50.936;6.764;2023-04-16T06:49:20;9.50;99.90
14182;DHT22;7171;50.936;6.764;2023-04-16T06:51:47;9.50;99.90
14182;DHT22;7171;50.936;6.764;2023-04-16T06:54:14;9.50;99.90
14182;DHT22;7171;50.936;6.764;2023-04-16T06:56:41;9.40;99.90
14182;DHT22;7171;50.936;6.764;2023-04-16T06:59:07;9.50;99.90
14182;DHT22;7171;50.936;6.764;2023-04-16T07:01:35;9.50;99.90
14182;DHT22;7171;50.936;6.764;2023-04-16T07:04:03;9.50;99.90
14182;DHT22;7171;50.936;6.764;2023-04-16T07:06:30;9.50;99.90
14182;DHT22;7171;50.936;6.764;2023-04-16T07:08:57;9.50;99.90
14182;DHT22;7171;50.936;6.764;2023-04-16T07:11:24;9.50;99.90
14182;DHT22;7171;50.936;6.764;2023-04-16T07:13:51;9.50;99.90
14182;DHT22;7171;50.936;6.764;2023-04-16T07:16:18;9.50;99.90
14182;DHT22;7171;50.936;6.764;2023-04-16T07:18:45;9.50;99.90
14182;DHT22;7171;50.936;6.764;2023-04-16T07:21:13;9.50;99.90
14182;DHT22;7171;50.936;6.764;2023-04-16T07:23:40;9.50;99.90
14182;DHT22;7171;50.936;6.764;2023-04-16T07:26:07;9.50;99.90
14182;DHT22;7171;50.936;6.764;2023-04-16T07:28:34;9.50;99.90
14182;DHT22;7171;50.936;6.764;2023-04-16T07:31:00;9.40;99.90
14182;DHT22;7171;50.936;6.764;2023-04-16T07:33:27;9.50;99.90
14182;DHT22;7171;50.936;6.764;2023-04-16T07:35:54;9.50;99.90
14182;DHT22;7171;50.936;6.764;2023-04-16T07:38:22;9.40;99.90
14182;DHT22;7171;50.936;6.764;2023-04-16T07:40:49;9.50;99.90
14182;DHT22;7171;50.936;6.764;2023-04-16T07:43:15;9.50;99.90
14182;DHT22;7171;50.936;6.764;2023-04-16T07:45:42;9.50;99.90
14182;DHT22;7171;50.936;6.764;2023-04-16T07:48:09;9.50;99.90
14182;DHT22;7171;50.936;6.764;2023-04-16T07:50:36;9.60;99.90
14182;DHT22;7171;50.936;6.764;2023-04-16T07:53:03;9.60;99.90
14182;DHT22;7171;50.936;6.764;2023-04-16T07:55:33;9.60;99.90
14182;DHT22;7171;50.936;6.764;2023-04-16T07:58:00;9.60;99.90
14182;DHT22;7171;50.936;6.764;2023-04-16T08:00:27;9.60;99.90
14182;DHT22;7171;50.936;6.764;2023-04-16T08:02:54;9.60;99.90
14182;DHT22;7171;50.936;6.764;2023-04-16T08:05:21;9.60;99.90
14182;DHT22;7171;50.936;6.764;2023-04-16T08:07:47;9.60;99.90
14182;DHT22;7171;50.936;6.764;2023-04-16T08:10:14;9.60;99.90
14182;DHT22;7171;50.936;6.764;2023-04-16T08:12:42;9.60;99.90
14182;DHT22;7171;50.936;6.764;2023-04-16T08:15:09;9.70;99.90
14182;DHT22;7171;50.936;6.764;2023-04-16T08:17:37;9.70;99.90
14182;DHT22;7171;50.936;6.764;2023-04-16T08:20:05;9.70;99.90
14182;DHT22;7171;50.936;6.764;2023-04-16T08:22:32;9.70;99.90
14182;DHT22;7171;50.936;6.764;2023-04-16T08:24:59;9.70;99.90
14182;DHT22;7171;50.936;6.764;2023-04-16T08:27:26;9.80;99.90
14182;DHT22;7171;50.936;6.764;2023-04-16T08:29:54;9.80;99.90
14182;DHT22;7171;50.936;6.764;2023-04-16T08:32:20;9.80;99.90
14182;DHT22;7171;50.936;6.764;2023-04-16T08:34:47;9.80;99.90
14182;DHT22;7171;50.936;6.764;2023-04-16T08:37:14;9.80;99.90
14182;DHT22;7171;50.936;6.764;2023-04-16T08:39:41;9.80;99.90
14182;DHT22;7171;50.936;6.764;2023-04-16T08:42:13;9.80;99.90
14182;DHT22;7171;50.936;6.764;2023-04-16T08:44:47;9.80;99.90
14182;DHT22;7171;50.936;6.764;2023-04-16T08:47:16;9.80;99.90
14182;DHT22;7171;50.936;6.764;2023-04-16T08:49:44;9.80;99.90
14182;DHT22;7171;50.936;6.764;2023-04-16T08:52:14;9.90;99.90
14182;DHT22;7171;50.936;6.764;2023-04-16T08:54:45;9.80;99.90
14182;DHT22;7171;50.936;6.764;2023-04-16T08:57:17;9.80;99.90
14182;DHT22;7171;50.936;6.764;2023-04-16T08:59:45;9.80;99.90
14182;DHT22;7171;50.936;6.764;2023-04-16T09:02:12;9.80;99.90
14182;DHT22;7171;50.936;6.764;2023-04-16T09:04:41;9.80;99.90
14182;DHT22;7171;50.936;6.764;2023-04-16T09:07:09;9.80;99.90
14182;DHT22;7171;50.936;6.764;2023-04-16T09:09:37;9.90;99.90
14182;DHT22;7171;50.936;6.764;2023-04-16T09:12:04;9.90;99.90
14182;DHT22;7171;50.936;6.764;2023-04-16T09:14:31;10.00;99.90
14182;DHT22;7171;50.936;6.764;2023-04-16T09:16:59;10.20;99.90
14182;DHT22;7171;50.936;6.764;2023-04-16T09:19:26;10.20;99.90
14182;DHT22;7171;50.936;6.764;2023-04-16T09:21:55;10.20;99.90
14182;DHT22;7171;50.936;6.764;2023-04-16T09:24:22;10.30;99.90
14182;DHT22;7171;50.936;6.764;2023-04-16T09:26:49;10.40;99.90
14182;DHT22;7171;50.936;6.764;2023-04-16T09:29:33;10.40;99.90
14182;DHT22;7171;50.936;6.764;2023-04-16T09:32:01;10.60;99.90
14182;DHT22;7171;50.936;6.764;2023-04-16T09:34:28;10.50;99.90
14182;DHT22;7171;50.936;6.764;2023-04-16T09:37:13;10.60;99.90
14182;DHT22;7171;50.936;6.764;2023-04-16T09:39:41;10.70;99.90
14182;DHT22;7171;50.936;6.764;2023-04-16T09:42:08;10.70;99.90
14182;DHT22;7171;50.936;6.764;2023-04-16T09:44:35;10.80;99.90
14182;DHT22;7171;50.936;6.764;2023-04-16T09:47:05;10.90;99.90
14182;DHT22;7171;50.936;6.764;2023-04-16T09:49:33;10.90;99.90
14182;DHT22;7171;50.936;6.764;2023-04-16T09:52:01;11.00;99.90
14182;DHT22;7171;50.936;6.764;2023-04-16T09:54:29;11.00;99.90
14182;DHT22;7171;50.936;6.764;2023-04-16T09:56:56;11.00;99.90
14182;DHT22;7171;50.936;6.764;2023-04-16T09:59:23;11.00;99.90
14182;DHT22;7171;50.936;6.764;2023-04-16T10:01:50;11.10;99.90
14182;DHT22;7171;50.936;6.764;2023-04-16T10:04:18;11.10;99.90
14182;DHT22;7171;50.936;6.764;2023-04-16T10:07:02;11.20;99.90
14182;DHT22;7171;50.936;6.764;2023-04-16T10:09:31;11.20;99.90
14182;DHT22;7171;50.936;6.764;2023-04-16T10:11:58;11.20;99.90
14182;DHT22;7171;50.936;6.764;2023-04-16T10:14:25;11.20;99.90
14182;DHT22;7171;50.936;6.764;2023-04-16T10:16:52;11.20;99.90
14182;DHT22;7171;50.936;6.764;2023-04-16T10:19:19;11.20;99.90
14182;DHT22;7171;50.936;6.764;2023-04-16T10:21:46;11.20;99.90
14182;DHT22;7171;50.936;6.764;2023-04-16T10:24:15;11.20;99.90
14182;DHT22;7171;50.936;6.764;2023-04-16T10:26:43;11.30;99.90
14182;DHT22;7171;50.936;6.764;2023-04-16T10:29:11;11.30;99.90
14182;DHT22;7171;50.936;6.764;2023-04-16T10:31:38;11.30;99.90
14182;DHT22;7171;50.936;6.764;2023-04-16T10:34:08;11.40;99.90
14182;DHT22;7171;50.936;6.764;2023-04-16T10:36:35;11.40;99.90
14182;DHT22;7171;50.936;6.764;2023-04-16T10:39:02;11.40;99.90
14182;DHT22;7171;50.936;6.764;2023-04-16T10:41:32;11.40;99.90
14182;DHT22;7171;50.936;6.764;2023-04-16T10:44:06;11.60;99.90
14182;DHT22;7171;50.936;6.764;2023-04-16T10:46:36;11.50;99.90
14182;DHT22;7171;50.936;6.764;2023-04-16T10:49:12;11.50;99.90
14182;DHT22;7171;50.936;6.764;2023-04-16T10:51:39;11.50;99.90
14182;DHT22;7171;50.936;6.764;2023-04-16T10:54:19;11.60;99.90
14182;DHT22;7171;50.936;6.764;2023-04-16T10:56:49;11.50;99.90
14182;DHT22;7171;50.936;6.764;2023-04-16T10:59:17;11.60;99.90
14182;DHT22;7171;50.936;6.764;2023-04-16T11:01:46;11.60;99.90
14182;DHT22;7171;50.936;6.764;2023-04-16T11:04:27;11.70;99.90
14182;DHT22;7171;50.936;6.764;2023-04-16T11:07:05;11.80;99.90
14182;DHT22;7171;50.936;6.764;2023-04-16T11:09:46;11.70;99.90
14182;DHT22;7171;50.936;6.764;2023-04-16T11:12:18;11.80;99.90
14182;DHT22;7171;50.936;6.764;2023-04-16T11:14:47;11.90;99.90
14182;DHT22;7171;50.936;6.764;2023-04-16T11:17:14;11.90;99.90
14182;DHT22;7171;50.936;6.764;2023-04-16T11:19:42;11.90;99.90
14182;DHT22;7171;50.936;6.764;2023-04-16T11:22:11;11.90;99.90
14182;DHT22;7171;50.936;6.764;2023-04-16T11:24:38;12.00;99.90
14182;DHT22;7171;50.936;6.764;2023-04-16T11:27:05;12.00;99.90
14182;DHT22;7171;50.936;6.764;2023-04-16T11:29:33;12.00;99.90
14182;DHT22;7171;50.936;6.764;2023-04-16T11:32:00;12.10;99.90
14182;DHT22;7171;50.936;6.764;2023-04-16T11:34:27;12.20;99.90
14182;DHT22;7171;50.936;6.764;2023-04-16T11:36:54;12.20;99.90
14182;DHT22;7171;50.936;6.764;2023-04-16T11:39:21;12.30;99.90
14182;DHT22;7171;50.936;6.764;2023-04-16T11:41:49;12.30;99.90
14182;DHT22;7171;50.936;6.764;2023-04-16T11:44:21;12.30;99.90
14182;DHT22;7171;50.936;6.764;2023-04-16T11:46:50;12.40;99.90
14182;DHT22;7171;50.936;6.764;2023-04-16T11:49:23;12.40;99.90
14182;DHT22;7171;50.936;6.764;2023-04-16T11:51:52;12.40;99.90
14182;DHT22;7171;50.936;6.764;2023-04-16T11:54:20;12.40;99.90
14182;DHT22;7171;50.936;6.764;2023-04-16T11:56:48;12.40;99.90
14182;DHT22;7171;50.936;6.764;2023-04-16T11:59:16;12.40;99.90
14182;DHT22;7171;50.936;6.764;2023-04-16T12:01:46;12.40;99.90
14182;DHT22;7171;50.936;6.764;2023-04-16T12:04:15;12.40;99.90
14182;DHT22;7171;50.936;6.764;2023-04-16T12:07:04;12.40;99.90
14182;DHT22;7171;50.936;6.764;2023-04-16T12:09:33;12.50;99.90
14182;DHT22;7171;50.936;6.764;2023-04-16T12:12:00;12.50;99.90
14182;DHT22;7171;50.936;6.764;2023-04-16T12:14:27;12.50;99.90
14182;DHT22;7171;50.936;6.764;2023-04-16T12:16:54;12.60;99.90
14182;DHT22;7171;50.936;6.764;2023-04-16T12:19:22;12.60;99.90
14182;DHT22;7171;50.936;6.764;2023-04-16T12:21:49;12.60;99.90
14182;DHT22;7171;50.936;6.764;2023-04-16T12:24:17;12.70;99.90
14182;DHT22;7171;50.936;6.764;2023-04-16T12:26:51;12.70;99.90
14182;DHT22;7171;50.936;6.764;2023-04-16T12:29:21;12.80;99.90
14182;DHT22;7171;50.936;6.764;2023-04-16T12:31:48;12.80;99.90
14182;DHT22;7171;50.936;6.764;2023-04-16T12:34:16;12.80;99.90
14182;DHT22;7171;50.936;6.764;2023-04-16T12:36:45;12.70;99.90
14182;DHT22;7171;50.936;6.764;2023-04-16T12:39:14;12.80;99.90
14182;DHT22;7171;50.936;6.764;2023-04-16T12:41:42;12.80;99.90
14182;DHT22;7171;50.936;6.764;2023-04-16T12:44:10;12.80;99.90
14182;DHT22;7171;50.936;6.764;2023-04-16T12:46:38;12.90;99.90
14182;DHT22;7171;50.936;6.764;2023-04-16T12:49:05;12.90;99.90
14182;DHT22;7171;50.936;6.764;2023-04-16T12:51:32;13.00;99.90
14182;DHT22;7171;50.936;6.764;2023-04-16T12:54:01;13.10;99.90
14182;DHT22;7171;50.936;6.764;2023-04-16T12:56:29;13.20;99.90
14182;DHT22;7171;50.936;6.764;2023-04-16T12:58:56;13.20;99.90
14182;DHT22;7171;50.936;6.764;2023-04-16T13:01:23;13.30;99.90
14182;DHT22;7171;50.936;6.764;2023-04-16T13:03:50;13.40;99.90
14182;DHT22;7171;50.936;6.764;2023-04-16T13:06:17;13.40;99.90
14182;DHT22;7171;50.936;6.764;2023-04-16T13:08:44;13.40;99.90
14182;DHT22;7171;50.936;6.764;2023-04-16T13:11:12;13.50;99.90
14182;DHT22;7171;50.936;6.764;2023-04-16T13:13:39;13.50;99.90
14182;DHT22;7171;50.936;6.764;2023-04-16T13:16:05;13.60;99.90
14182;DHT22;7171;50.936;6.764;2023-04-16T13:18:33;13.60;99.90
14182;DHT22;7171;50.936;6.764;2023-04-16T13:21:01;13.60;99.90
14182;DHT22;7171;50.936;6.764;2023-04-16T13:23:28;13.60;99.90
14182;DHT22;7171;50.936;6.764;2023-04-16T13:25:55;13.60;99.90
14182;DHT22;7171;50.936;6.764;2023-04-16T13:28:23;13.70;99.90
14182;DHT22;7171;50.936;6.764;2023-04-16T13:30:52;13.70;99.90
14182;DHT22;7171;50.936;6.764;2023-04-16T13:33:18;13.70;99.90
14182;DHT22;7171;50.936;6.764;2023-04-16T13:35:46;13.70;99.90
14182;DHT22;7171;50.936;6.764;2023-04-16T13:38:13;13.80;99.90
14182;DHT22;7171;50.936;6.764;2023-04-16T13:40:40;13.80;99.90
14182;DHT22;7171;50.936;6.764;2023-04-16T13:43:06;13.70;99.90
14182;DHT22;7171;50.936;6.764;2023-04-16T13:45:35;13.80;99.90
14182;DHT22;7171;50.936;6.764;2023-04-16T13:48:03;13.80;99.90
14182;DHT22;7171;50.936;6.764;2023-04-16T13:50:29;13.80;99.90
14182;DHT22;7171;50.936;6.764;2023-04-16T13:52:56;13.80;99.90
14182;DHT22;7171;50.936;6.764;2023-04-16T13:55:23;13.80;99.90
14182;DHT22;7171;50.936;6.764;2023-04-16T13:57:50;13.80;99.90
14182;DHT22;7171;50.936;6.764;2023-04-16T14:00:19;13.80;99.90
14182;DHT22;7171;50.936;6.764;2023-04-16T14:02:47;13.80;99.90
14182;DHT22;7171;50.936;6.764;2023-04-16T14:05:13;14.70;99.90
14182;DHT22;7171;50.936;6.764;2023-04-16T14:07:40;13.70;99.90
14182;DHT22;7171;50.936;6.764;2023-04-16T14:10:08;13.70;99.90
14182;DHT22;7171;50.936;6.764;2023-04-16T14:12:35;13.70;99.90
14182;DHT22;7171;50.936;6.764;2023-04-16T14:15:03;13.80;99.90
14182;DHT22;7171;50.936;6.764;2023-04-16T14:17:31;13.80;99.90
14182;DHT22;7171;50.936;6.764;2023-04-16T14:19:59;13.80;99.90
14182;DHT22;7171;50.936;6.764;2023-04-16T14:22:26;13.90;99.90
14182;DHT22;7171;50.936;6.764;2023-04-16T14:24:52;13.90;99.90
14182;DHT22;7171;50.936;6.764;2023-04-16T14:27:19;14.00;99.90
14182;DHT22;7171;50.936;6.764;2023-04-16T14:29:46;14.00;99.90
14182;DHT22;7171;50.936;6.764;2023-04-16T14:32:12;14.00;99.90
14182;DHT22;7171;50.936;6.764;2023-04-16T14:34:39;14.00;99.90
14182;DHT22;7171;50.936;6.764;2023-04-16T14:37:07;14.00;99.90
14182;DHT22;7171;50.936;6.764;2023-04-16T14:39:34;14.00;99.90
14182;DHT22;7171;50.936;6.764;2023-04-16T14:42:03;14.00;99.90
14182;DHT22;7171;50.936;6.764;2023-04-16T14:44:30;13.90;99.90
14182;DHT22;7171;50.936;6.764;2023-04-16T14:46:57;14.00;99.90
14182;DHT22;7171;50.936;6.764;2023-04-16T14:49:24;14.00;99.90
14182;DHT22;7171;50.936;6.764;2023-04-16T14:51:51;14.00;99.90
14182;DHT22;7171;50.936;6.764;2023-04-16T14:54:19;14.10;99.90
14182;DHT22;7171;50.936;6.764;2023-04-16T14:56:46;14.10;99.90
14182;DHT22;7171;50.936;6.764;2023-04-16T14:59:13;14.10;99.90
14182;DHT22;7171;50.936;6.764;2023-04-16T15:01:39;14.10;99.90
14182;DHT22;7171;50.936;6.764;2023-04-16T15:04:06;14.20;99.90
14182;DHT22;7171;50.936;6.764;2023-04-16T15:06:33;14.30;99.90
14182;DHT22;7171;50.936;6.764;2023-04-16T15:09:01;14.30;99.90
14182;DHT22;7171;50.936;6.764;2023-04-16T15:11:29;14.40;99.90
14182;DHT22;7171;50.936;6.764;2023-04-16T15:13:56;14.40;99.90
14182;DHT22;7171;50.936;6.764;2023-04-16T15:16:22;14.40;99.90
14182;DHT22;7171;50.936;6.764;2023-04-16T15:18:49;14.40;99.90
14182;DHT22;7171;50.936;6.764;2023-04-16T15:21:16;14.40;99.90
14182;DHT22;7171;50.936;6.764;2023-04-16T15:23:43;14.40;99.90
14182;DHT22;7171;50.936;6.764;2023-04-16T15:26:10;14.40;99.90
14182;DHT22;7171;50.936;6.764;2023-04-16T15:28:38;14.40;99.90
14182;DHT22;7171;50.936;6.764;2023-04-16T15:31:05;14.40;99.90
14182;DHT22;7171;50.936;6.764;2023-04-16T15:33:31;14.40;99.90
14182;DHT22;7171;50.936;6.764;2023-04-16T15:35:58;14.40;99.90
14182;DHT22;7171;50.936;6.764;2023-04-16T15:38:25;14.40;99.90
14182;DHT22;7171;50.936;6.764;2023-04-16T15:40:54;14.40;99.90
14182;DHT22;7171;50.936;6.764;2023-04-16T15:43:26;14.50;99.90
14182;DHT22;7171;50.936;6.764;2023-04-16T15:45:54;14.50;99.90
14182;DHT22;7171;50.936;6.764;2023-04-16T15:48:22;14.50;99.90
14182;DHT22;7171;50.936;6.764;2023-04-16T15:50:49;14.50;99.90
14182;DHT22;7171;50.936;6.764;2023-04-16T15:53:16;14.40;99.90
14182;DHT22;7171;50.936;6.764;2023-04-16T15:55:43;14.40;99.90
14182;DHT22;7171;50.936;6.764;2023-04-16T15:58:10;14.30;99.90